Crittenden, New York
Current Conditions -  °F | °C
As of 6:54 AM on Monday 24 Nov 2014 (Local Time) from KBUF Reporting Station
Light Rain Light Rain  
Wind Chill: 57°   Ceiling: 4600
Heat Index: 57°   Visibility: 10mi
Dew Point: 49°   Wind: 25mph
Humidity: 74%   Direction: 200°SSW
Pressure: 29.29"   Gusts: 38mph
Location:  42.94°N, 78.48°W
Report Text: KBUF 241154Z 20022G33KT 10SM -RA FEW032 BKN046 BKN055 14/09 A2929 RMK AO2 PK WND 20033/1152 RAB54 SLP918 P0000 60003 70007 T01390094 10139 20100 55009
Loading
Personal Weather Stations






























Interactive Weather Map New forecast layout! Learn more

10-Day Weather Forecast

Advertisements
Track Severe Weather on mobile